createdAt,value
2023-05-17T00:01:10.609Z,13.10
2023-05-17T00:03:56.684Z,13.20
2023-05-17T00:06:42.380Z,13.10
2023-05-17T00:09:28.161Z,13.10
2023-05-17T00:12:13.450Z,13.10
2023-05-17T00:14:59.147Z,13.00
2023-05-17T00:17:44.843Z,12.80
2023-05-17T00:20:30.487Z,12.80
2023-05-17T00:23:16.002Z,13.00
2023-05-17T00:26:01.764Z,12.90
2023-05-17T00:28:47.077Z,12.80
2023-05-17T00:31:33.250Z,12.70
2023-05-17T00:34:18.947Z,12.90
2023-05-17T00:37:04.674Z,12.90
2023-05-17T00:39:50.117Z,12.90
2023-05-17T00:42:35.866Z,13.00
2023-05-17T00:45:21.326Z,13.00
2023-05-17T00:48:07.135Z,12.80
2023-05-17T00:50:53.504Z,12.90
2023-05-17T00:53:39.305Z,12.80
2023-05-17T00:56:25.281Z,12.80
2023-05-17T00:59:12.602Z,12.60
2023-05-17T01:01:58.340Z,12.60
2023-05-17T01:04:43.757Z,12.60
2023-05-17T01:07:29.137Z,12.70
2023-05-17T01:10:14.867Z,12.80
2023-05-17T01:13:08.775Z,12.70
2023-05-17T01:16:01.447Z,12.70
2023-05-17T01:18:49.153Z,12.60
2023-05-17T01:21:34.796Z,12.70
2023-05-17T01:24:20.219Z,12.80
2023-05-17T01:27:06.667Z,12.70
2023-05-17T01:29:52.218Z,12.70
2023-05-17T01:32:38.487Z,12.60
2023-05-17T01:35:23.919Z,12.50
2023-05-17T01:38:11.586Z,12.60
2023-05-17T01:41:00.392Z,12.50
2023-05-17T01:43:52.803Z,12.60
2023-05-17T01:46:42.628Z,12.50
2023-05-17T01:49:32.667Z,12.60
2023-05-17T01:52:18.296Z,12.50
2023-05-17T01:55:10.684Z,12.50
2023-05-17T01:57:56.595Z,12.60
2023-05-17T02:00:43.830Z,12.60
2023-05-17T02:03:29.596Z,12.40
2023-05-17T02:06:15.113Z,12.30
2023-05-17T02:09:02.768Z,12.30
2023-05-17T02:11:48.334Z,12.40
2023-05-17T02:14:33.906Z,12.40
2023-05-17T02:17:19.501Z,12.40
2023-05-17T02:20:05.870Z,12.30
2023-05-17T02:22:51.527Z,12.10
2023-05-17T02:25:37.741Z,12.10
2023-05-17T02:28:24.416Z,11.90
2023-05-17T02:31:10.078Z,11.90
2023-05-17T02:33:55.997Z,12.20
2023-05-17T02:36:41.839Z,12.20
2023-05-17T02:39:27.496Z,12.10
2023-05-17T02:42:13.129Z,12.10
2023-05-17T02:44:58.496Z,12.00
2023-05-17T02:47:46.212Z,11.90
2023-05-17T02:50:32.005Z,11.80
2023-05-17T02:53:18.204Z,12.00
2023-05-17T02:56:04.534Z,12.00
2023-05-17T02:58:51.285Z,12.10
2023-05-17T03:01:37.052Z,12.10
2023-05-17T03:04:23.601Z,11.90
2023-05-17T03:07:09.078Z,11.90
2023-05-17T03:09:55.906Z,11.80
2023-05-17T03:12:42.494Z,12.00
2023-05-17T03:15:31.053Z,11.90
2023-05-17T03:18:16.979Z,12.00
2023-05-17T03:21:02.860Z,12.00
2023-05-17T03:23:48.463Z,12.00
2023-05-17T03:26:34.230Z,12.00
2023-05-17T03:29:19.770Z,11.90
2023-05-17T03:32:05.604Z,11.60
2023-05-17T03:34:51.660Z,11.70
2023-05-17T03:37:37.415Z,11.60
2023-05-17T03:40:24.044Z,11.50
2023-05-17T03:43:09.540Z,11.50
2023-05-17T03:45:55.614Z,11.50
2023-05-17T03:48:41.457Z,11.50
2023-05-17T03:51:28.203Z,11.60
2023-05-17T03:54:14.114Z,11.50
2023-05-17T03:56:59.335Z,11.70
2023-05-17T03:59:45.019Z,11.60
2023-05-17T04:02:30.716Z,11.60
2023-05-17T04:05:16.599Z,11.50
2023-05-17T04:08:04.051Z,11.50
2023-05-17T04:10:49.850Z,11.40
2023-05-17T04:13:36.366Z,11.60
2023-05-17T04:16:22.168Z,11.60
2023-05-17T04:19:07.784Z,14.30
2023-05-17T04:21:53.313Z,11.60
2023-05-17T04:24:41.615Z,11.60
2023-05-17T04:27:27.344Z,11.60
2023-05-17T04:30:13.237Z,11.80
2023-05-17T04:32:59.157Z,11.80
2023-05-17T04:35:44.623Z,11.80
2023-05-17T04:38:31.572Z,11.80
2023-05-17T04:41:17.991Z,11.90
2023-05-17T04:44:04.141Z,11.90
2023-05-17T04:46:53.990Z,11.90
2023-05-17T04:49:39.756Z,12.00
2023-05-17T04:52:25.420Z,11.90
2023-05-17T04:55:11.617Z,11.90
2023-05-17T04:57:57.537Z,12.00
2023-05-17T05:00:44.629Z,12.10
2023-05-17T05:03:30.691Z,12.00
2023-05-17T05:06:16.906Z,12.20
2023-05-17T05:09:04.185Z,12.10
2023-05-17T05:11:51.625Z,12.30
2023-05-17T05:14:37.376Z,12.40
2023-05-17T05:17:23.361Z,12.40
2023-05-17T05:20:10.077Z,12.40
2023-05-17T05:22:57.412Z,12.50
2023-05-17T05:25:43.473Z,12.50
2023-05-17T05:28:30.387Z,12.40
2023-05-17T05:31:15.939Z,12.40
2023-05-17T05:34:07.440Z,12.60
2023-05-17T05:36:52.951Z,12.60
2023-05-17T05:39:39.155Z,12.70
2023-05-17T05:42:24.806Z,12.90
2023-05-17T05:45:10.783Z,13.00
2023-05-17T05:47:57.346Z,12.90
2023-05-17T05:50:44.116Z,13.00
2023-05-17T05:53:29.644Z,13.00
2023-05-17T05:56:15.427Z,12.90
2023-05-17T05:59:00.993Z,13.10
2023-05-17T06:01:47.910Z,13.10
2023-05-17T06:04:44.667Z,13.10
2023-05-17T06:07:30.776Z,13.00
2023-05-17T06:10:16.398Z,13.10
2023-05-17T06:13:02.062Z,12.90
2023-05-17T06:15:47.884Z,13.10
2023-05-17T06:18:33.799Z,13.10
2023-05-17T06:21:19.650Z,13.10
2023-05-17T06:24:05.394Z,11.90
2023-05-17T06:26:50.661Z,13.40
2023-05-17T06:29:36.475Z,13.60
2023-05-17T06:32:21.818Z,13.40
2023-05-17T06:35:08.459Z,13.50
2023-05-17T06:37:53.798Z,13.60
2023-05-17T06:40:39.488Z,13.60
2023-05-17T06:43:25.174Z,13.60
2023-05-17T06:46:11.350Z,13.70
2023-05-17T06:48:57.233Z,13.80
2023-05-17T06:51:43.109Z,13.90
2023-05-17T06:54:28.883Z,13.90
2023-05-17T06:57:14.365Z,13.90
2023-05-17T06:59:59.930Z,14.00
2023-05-17T07:02:45.710Z,14.10
2023-05-17T07:05:31.680Z,14.00
2023-05-17T07:08:17.608Z,14.00
2023-05-17T07:11:03.614Z,13.90
2023-05-17T07:13:50.692Z,14.10
2023-05-17T07:16:37.174Z,14.10
2023-05-17T07:19:23.086Z,14.20
2023-05-17T07:22:08.531Z,14.30
2023-05-17T07:24:53.902Z,14.50
2023-05-17T07:27:39.569Z,14.40
2023-05-17T07:30:25.087Z,14.40
2023-05-17T07:33:11.582Z,14.30
2023-05-17T07:35:57.052Z,14.40
2023-05-17T07:38:42.773Z,14.40
2023-05-17T07:41:28.272Z,14.50
2023-05-17T07:44:13.939Z,14.60
2023-05-17T07:46:59.532Z,14.40
2023-05-17T07:49:45.082Z,14.30
2023-05-17T07:52:30.966Z,14.40
2023-05-17T07:55:17.162Z,14.40
2023-05-17T07:58:03.028Z,14.50
2023-05-17T08:00:49.427Z,14.50
2023-05-17T08:03:35.077Z,14.60
2023-05-17T08:06:20.632Z,14.70
2023-05-17T08:09:06.127Z,14.90
2023-05-17T08:11:51.587Z,14.90
2023-05-17T08:14:37.333Z,15.00
2023-05-17T08:17:23.008Z,14.90
2023-05-17T08:20:08.960Z,15.00
2023-05-17T08:22:55.080Z,15.00
2023-05-17T08:25:41.973Z,15.00
2023-05-17T08:28:27.378Z,15.00
2023-05-17T08:31:13.132Z,15.10
2023-05-17T08:33:58.926Z,15.00
2023-05-17T08:36:44.595Z,15.10
2023-05-17T08:39:31.534Z,15.30
2023-05-17T08:42:25.371Z,15.40
2023-05-17T08:45:11.180Z,15.60
2023-05-17T08:47:57.094Z,15.70
2023-05-17T08:50:42.919Z,15.70
2023-05-17T08:53:28.649Z,15.70
2023-05-17T08:56:15.895Z,15.90
2023-05-17T08:59:01.557Z,15.90
2023-05-17T09:01:52.534Z,15.70
2023-05-17T09:04:38.631Z,15.70
2023-05-17T09:07:24.304Z,15.70
2023-05-17T09:10:09.870Z,15.70
2023-05-17T09:12:55.362Z,15.60
2023-05-17T09:15:44.531Z,15.60
2023-05-17T09:18:31.594Z,15.40
2023-05-17T09:21:17.902Z,15.40
2023-05-17T09:24:08.111Z,15.30
2023-05-17T09:26:54.016Z,15.30
2023-05-17T09:29:39.664Z,15.20
2023-05-17T09:32:25.545Z,15.20
2023-05-17T09:35:11.246Z,15.30
2023-05-17T09:38:05.096Z,15.40
2023-05-17T09:40:50.786Z,15.40
2023-05-17T09:43:36.322Z,15.50
2023-05-17T09:46:21.780Z,15.60
2023-05-17T09:49:09.292Z,15.70
2023-05-17T09:51:54.970Z,15.70
2023-05-17T09:54:41.305Z,15.70
2023-05-17T09:57:27.988Z,15.70
2023-05-17T10:00:13.979Z,15.70
2023-05-17T10:03:00.311Z,15.70
2023-05-17T10:05:46.773Z,15.80
2023-05-17T10:08:33.567Z,16.00
2023-05-17T10:11:22.898Z,16.00
2023-05-17T10:14:13.250Z,16.10
2023-05-17T10:16:59.081Z,16.10
2023-05-17T10:19:45.095Z,16.00
2023-05-17T10:22:31.280Z,15.70
2023-05-17T10:25:17.123Z,15.80
2023-05-17T10:28:02.805Z,15.90
2023-05-17T10:30:48.620Z,16.10
2023-05-17T10:33:34.306Z,16.30
2023-05-17T10:36:20.925Z,16.60
2023-05-17T10:39:08.068Z,16.80
2023-05-17T10:42:03.468Z,16.70
2023-05-17T10:45:00.853Z,16.70
2023-05-17T10:47:46.792Z,16.80
2023-05-17T10:50:32.627Z,16.70
2023-05-17T10:53:18.025Z,16.80
2023-05-17T10:56:03.897Z,16.90
2023-05-17T10:59:09.331Z,13.10
2023-05-17T11:01:58.095Z,17.10
2023-05-17T11:04:45.024Z,17.10
2023-05-17T11:07:37.343Z,17.00
2023-05-17T11:10:22.913Z,17.10
2023-05-17T11:13:25.698Z,17.20
2023-05-17T11:16:14.948Z,17.30
2023-05-17T11:19:07.179Z,15.00
2023-05-17T11:21:53.000Z,17.30
2023-05-17T11:24:41.439Z,17.30
2023-05-17T11:27:28.920Z,17.30
2023-05-17T11:30:26.891Z,17.40
2023-05-17T11:33:25.409Z,17.50
2023-05-17T11:36:19.754Z,17.70
2023-05-17T11:39:15.805Z,17.80
2023-05-17T11:42:01.903Z,17.70
2023-05-17T11:44:47.538Z,17.80
2023-05-17T11:47:33.261Z,17.80
2023-05-17T11:50:19.236Z,17.70
2023-05-17T11:53:06.839Z,17.70
2023-05-17T11:55:52.641Z,17.70
2023-05-17T11:58:38.382Z,17.70
2023-05-17T12:01:24.002Z,17.80
2023-05-17T12:04:09.561Z,17.80
2023-05-17T12:06:55.730Z,18.00
2023-05-17T12:09:44.687Z,18.20
2023-05-17T12:12:30.720Z,18.30
2023-05-17T12:15:19.623Z,18.30
2023-05-17T12:18:05.129Z,18.40
2023-05-17T12:20:57.431Z,18.40
2023-05-17T12:23:43.958Z,18.40
2023-05-17T12:26:29.255Z,18.40
2023-05-17T12:29:15.985Z,18.30
2023-05-17T12:32:01.789Z,18.30
2023-05-17T12:34:49.328Z,18.40
2023-05-17T12:37:35.258Z,18.40
2023-05-17T12:40:20.695Z,18.50
2023-05-17T12:43:06.452Z,18.60
2023-05-17T12:45:52.769Z,18.70
2023-05-17T12:48:39.915Z,18.90
2023-05-17T12:51:25.667Z,19.20
2023-05-17T12:54:18.843Z,19.30
2023-05-17T12:57:12.725Z,19.50
2023-05-17T12:59:58.469Z,19.70
2023-05-17T13:02:44.474Z,19.90
2023-05-17T13:05:30.581Z,19.90
2023-05-17T13:08:19.829Z,19.90
2023-05-17T13:11:06.009Z,19.90
2023-05-17T13:13:51.729Z,19.90
2023-05-17T13:16:37.883Z,19.80
2023-05-17T13:19:23.552Z,19.80
2023-05-17T13:22:09.337Z,19.80
2023-05-17T13:24:55.571Z,19.80
2023-05-17T13:27:45.308Z,20.00
2023-05-17T13:30:31.375Z,20.30
2023-05-17T13:33:17.176Z,20.60
2023-05-17T13:36:02.726Z,20.70
2023-05-17T13:38:48.563Z,20.70
2023-05-17T13:41:34.142Z,20.50
2023-05-17T13:44:20.045Z,20.30
2023-05-17T13:47:05.855Z,20.30
2023-05-17T13:49:51.118Z,20.30
2023-05-17T13:52:36.789Z,20.30
2023-05-17T13:55:22.486Z,22.70
2023-05-17T13:58:07.785Z,20.20
2023-05-17T14:00:53.509Z,20.20
2023-05-17T14:03:39.184Z,20.10
2023-05-17T14:06:24.864Z,20.10
2023-05-17T14:09:10.441Z,20.10
2023-05-17T14:11:55.650Z,20.20
2023-05-17T14:14:41.408Z,20.30
2023-05-17T14:17:26.858Z,20.70
2023-05-17T14:20:14.134Z,20.90
2023-05-17T14:22:59.970Z,20.90
2023-05-17T14:25:48.324Z,20.80
2023-05-17T14:28:36.362Z,20.70
2023-05-17T14:31:22.140Z,20.70
2023-05-17T14:34:07.867Z,21.00
2023-05-17T14:36:53.324Z,21.20
2023-05-17T14:39:38.927Z,21.40
2023-05-17T14:42:25.810Z,21.70
2023-05-17T14:45:11.379Z,22.00
2023-05-17T14:47:56.914Z,22.40
2023-05-17T14:50:42.353Z,22.70
2023-05-17T14:53:29.411Z,23.00
2023-05-17T14:56:15.377Z,23.30
2023-05-17T14:59:00.764Z,23.60
2023-05-17T15:01:46.681Z,23.80
2023-05-17T15:04:32.240Z,24.00
2023-05-17T15:07:17.752Z,24.00
2023-05-17T15:10:04.254Z,23.80
2023-05-17T15:12:49.849Z,23.50
2023-05-17T15:15:35.488Z,23.30
2023-05-17T15:18:21.384Z,23.30
2023-05-17T15:21:07.168Z,23.40
2023-05-17T15:23:52.845Z,23.60
2023-05-17T15:26:38.603Z,23.80
2023-05-17T15:29:23.979Z,24.00
2023-05-17T15:32:09.599Z,24.10
2023-05-17T15:34:55.177Z,24.30
2023-05-17T15:37:41.348Z,24.30
2023-05-17T15:40:27.691Z,24.40
2023-05-17T15:43:12.979Z,24.40
2023-05-17T15:45:58.735Z,24.10
2023-05-17T15:48:44.362Z,23.80
2023-05-17T15:51:29.985Z,23.50
2023-05-17T15:54:15.767Z,23.20
2023-05-17T15:57:01.485Z,22.90
2023-05-17T15:59:46.884Z,22.60
2023-05-17T16:02:32.711Z,22.50
2023-05-17T16:05:18.215Z,22.30
2023-05-17T16:08:04.151Z,22.10
2023-05-17T16:10:49.565Z,22.00
2023-05-17T16:13:35.235Z,21.80
2023-05-17T16:16:20.911Z,21.80
2023-05-17T16:19:06.629Z,21.60
2023-05-17T16:21:52.257Z,21.50
2023-05-17T16:24:37.693Z,21.40
2023-05-17T16:27:23.319Z,21.30
2023-05-17T16:30:08.979Z,21.30
2023-05-17T16:32:54.426Z,21.20
2023-05-17T16:35:40.395Z,21.20
2023-05-17T16:38:26.275Z,21.10
2023-05-17T16:41:11.555Z,21.10
2023-05-17T16:43:57.154Z,21.00
2023-05-17T16:46:42.622Z,21.00
2023-05-17T16:49:30.183Z,21.00
2023-05-17T16:52:15.830Z,20.90
2023-05-17T16:55:03.262Z,20.90
2023-05-17T16:57:48.999Z,20.90
2023-05-17T17:00:34.784Z,20.80
2023-05-17T17:03:20.421Z,20.80
2023-05-17T17:06:06.017Z,20.80
2023-05-17T17:08:51.720Z,20.60
2023-05-17T17:11:37.329Z,20.50
2023-05-17T17:14:24.222Z,20.40
2023-05-17T17:17:09.949Z,20.40
2023-05-17T17:19:55.302Z,20.40
2023-05-17T17:22:41.503Z,20.20
2023-05-17T17:25:28.143Z,20.10
2023-05-17T17:28:13.880Z,20.20
2023-05-17T17:30:59.393Z,20.20
2023-05-17T17:33:45.118Z,20.10
2023-05-17T17:36:31.112Z,19.90
2023-05-17T17:39:17.323Z,19.70
2023-05-17T17:42:03.047Z,19.60
2023-05-17T17:44:48.691Z,19.50
2023-05-17T17:47:34.235Z,19.40
2023-05-17T17:50:19.990Z,19.40
2023-05-17T17:53:05.556Z,19.30
2023-05-17T17:55:51.242Z,19.20
2023-05-17T17:58:36.875Z,19.20
2023-05-17T18:01:23.203Z,19.00
2023-05-17T18:04:09.484Z,18.90
2023-05-17T18:06:55.650Z,18.60
2023-05-17T18:09:41.420Z,18.50
2023-05-17T18:12:27.659Z,18.40
2023-05-17T18:15:13.377Z,18.30
2023-05-17T18:17:58.951Z,18.10
2023-05-17T18:20:44.399Z,18.00
2023-05-17T18:23:30.139Z,17.90
2023-05-17T18:26:15.442Z,17.80
2023-05-17T18:29:01.272Z,17.70
2023-05-17T18:31:47.474Z,17.50
2023-05-17T18:34:33.051Z,17.40
2023-05-17T18:37:18.515Z,17.30
2023-05-17T18:40:04.400Z,17.20
2023-05-17T18:42:49.705Z,17.10
2023-05-17T18:45:36.505Z,17.10
2023-05-17T18:48:22.267Z,16.90
2023-05-17T18:51:07.825Z,16.80
2023-05-17T18:53:53.743Z,16.80
2023-05-17T18:56:39.453Z,16.60
2023-05-17T18:59:25.106Z,16.50
2023-05-17T19:02:10.906Z,16.50
2023-05-17T19:04:56.445Z,16.40
2023-05-17T19:07:42.315Z,16.30
2023-05-17T19:10:28.248Z,16.20
2023-05-17T19:13:14.132Z,16.10
2023-05-17T19:16:01.076Z,16.00
2023-05-17T19:18:46.636Z,16.00
2023-05-17T19:21:32.309Z,15.80
2023-05-17T19:24:17.951Z,15.80
2023-05-17T19:27:03.275Z,15.70
2023-05-17T19:29:49.118Z,15.60
2023-05-17T19:32:34.681Z,15.50
2023-05-17T19:35:20.310Z,15.40
2023-05-17T19:38:06.368Z,15.30
2023-05-17T19:40:51.977Z,15.20
2023-05-17T19:43:38.130Z,15.20
2023-05-17T19:46:23.705Z,15.10
2023-05-17T19:49:09.500Z,15.10
2023-05-17T19:52:00.458Z,14.90
2023-05-17T19:54:46.425Z,14.90
2023-05-17T19:57:32.091Z,14.90
2023-05-17T20:00:18.175Z,14.80
2023-05-17T20:03:03.663Z,14.80
2023-05-17T20:05:49.873Z,14.70
2023-05-17T20:08:35.728Z,14.60
2023-05-17T20:11:21.629Z,14.50
2023-05-17T20:14:07.121Z,14.30
2023-05-17T20:16:52.722Z,14.30
2023-05-17T20:19:38.548Z,14.20
2023-05-17T20:22:24.246Z,14.10
2023-05-17T20:25:09.610Z,14.10
2023-05-17T20:27:55.094Z,14.00
2023-05-17T20:30:44.168Z,14.00
2023-05-17T20:33:29.557Z,13.90
2023-05-17T20:36:15.347Z,13.70
2023-05-17T20:39:00.769Z,13.70
2023-05-17T20:41:47.750Z,13.80
2023-05-17T20:44:34.113Z,13.80
2023-05-17T20:47:20.176Z,13.90
2023-05-17T20:50:06.207Z,13.80
2023-05-17T20:52:51.926Z,13.90
2023-05-17T20:55:37.499Z,13.80
2023-05-17T20:58:23.523Z,13.80
2023-05-17T21:01:08.844Z,13.80
2023-05-17T21:03:54.340Z,13.60
2023-05-17T21:06:40.041Z,13.60
2023-05-17T21:09:26.791Z,13.50
2023-05-17T21:12:12.188Z,13.50
2023-05-17T21:15:14.403Z,13.40
2023-05-17T21:18:01.129Z,13.40
2023-05-17T21:20:46.799Z,13.30
2023-05-17T21:23:32.185Z,13.20
2023-05-17T21:26:17.833Z,13.30
2023-05-17T21:29:03.183Z,13.20
2023-05-17T21:31:49.115Z,13.10
2023-05-17T21:34:34.852Z,13.10
2023-05-17T21:37:20.451Z,13.00
2023-05-17T21:40:07.940Z,13.00
2023-05-17T21:42:53.515Z,12.70
2023-05-17T21:45:39.947Z,12.70
2023-05-17T21:48:26.014Z,12.70
2023-05-17T21:51:11.848Z,12.70
2023-05-17T21:53:57.221Z,12.70
2023-05-17T21:56:43.089Z,12.60
2023-05-17T21:59:28.501Z,12.60
2023-05-17T22:02:14.242Z,12.60
2023-05-17T22:04:59.582Z,12.50
2023-05-17T22:07:45.295Z,12.30
2023-05-17T22:10:32.579Z,12.30
2023-05-17T22:13:18.346Z,12.30
2023-05-17T22:16:04.235Z,11.10
2023-05-17T22:18:52.457Z,12.30
2023-05-17T22:21:37.726Z,12.00
2023-05-17T22:24:23.293Z,12.20
2023-05-17T22:27:09.164Z,12.10
2023-05-17T22:29:54.779Z,12.10
2023-05-17T22:32:40.492Z,12.10
2023-05-17T22:35:26.055Z,11.90
2023-05-17T22:38:11.516Z,12.00
2023-05-17T22:40:57.350Z,12.00
2023-05-17T22:43:43.031Z,11.90
2023-05-17T22:46:28.764Z,11.80
2023-05-17T22:49:14.389Z,11.70
2023-05-17T22:52:05.434Z,11.60
2023-05-17T22:54:50.870Z,11.60
2023-05-17T22:57:36.641Z,11.60
2023-05-17T23:00:22.056Z,11.60
2023-05-17T23:03:07.499Z,11.60
2023-05-17T23:06:02.176Z,11.50
2023-05-17T23:08:52.987Z,11.50
2023-05-17T23:11:41.028Z,11.50
2023-05-17T23:14:26.469Z,11.50
2023-05-17T23:17:12.131Z,11.40
2023-05-17T23:20:12.731Z,11.40
2023-05-17T23:22:59.643Z,11.30
2023-05-17T23:25:48.817Z,11.30
2023-05-17T23:28:34.397Z,11.30
2023-05-17T23:31:21.736Z,11.00
2023-05-17T23:34:07.641Z,11.10
2023-05-17T23:36:53.344Z,11.20
2023-05-17T23:39:38.929Z,11.00
2023-05-17T23:42:26.429Z,10.90
2023-05-17T23:45:11.910Z,11.00
2023-05-17T23:48:02.174Z,11.00
2023-05-17T23:50:48.012Z,10.90
2023-05-17T23:53:34.182Z,10.90
2023-05-17T23:56:20.036Z,10.90
2023-05-17T23:59:05.825Z,10.80
